createdAt,value
2022-10-31T00:00:35.826Z,1016.34
2022-10-31T00:01:36.463Z,1016.37
2022-10-31T00:02:37.149Z,1016.36
2022-10-31T00:03:37.800Z,1016.40
2022-10-31T00:04:38.399Z,1016.36
2022-10-31T00:05:39.012Z,1016.25
2022-10-31T00:06:39.601Z,1016.34
2022-10-31T00:07:40.205Z,1016.33
2022-10-31T00:08:40.809Z,1016.30
2022-10-31T00:09:41.467Z,1016.21
2022-10-31T00:10:42.080Z,1016.29
2022-10-31T00:11:42.676Z,1016.26
2022-10-31T00:12:43.424Z,1016.30
2022-10-31T00:13:44.104Z,1016.28
2022-10-31T00:14:44.676Z,1016.28
2022-10-31T00:15:45.280Z,1016.20
2022-10-31T00:16:45.976Z,1016.24
2022-10-31T00:17:46.578Z,1016.21
2022-10-31T00:18:47.243Z,1016.26
2022-10-31T00:19:47.840Z,1016.26
2022-10-31T00:20:48.438Z,1016.27
2022-10-31T00:21:49.037Z,1016.18
2022-10-31T00:22:49.638Z,1016.21
2022-10-31T00:23:50.240Z,1016.11
2022-10-31T00:24:50.883Z,1016.14
2022-10-31T00:25:51.612Z,1016.15
2022-10-31T00:26:52.210Z,1016.20
2022-10-31T00:27:52.857Z,1016.12
2022-10-31T00:28:53.551Z,1016.13
2022-10-31T00:29:54.202Z,1016.13
2022-10-31T00:30:55.651Z,1016.08
2022-10-31T00:31:56.251Z,1016.09
2022-10-31T00:32:57.129Z,1016.08
2022-10-31T00:33:58.745Z,1016.05
2022-10-31T00:34:59.394Z,1015.96
2022-10-31T00:36:00.045Z,1016.02
2022-10-31T00:37:00.647Z,1016.02
2022-10-31T00:38:01.244Z,1015.92
2022-10-31T00:39:01.843Z,1015.95
2022-10-31T00:40:02.445Z,1015.93
2022-10-31T00:41:03.050Z,1015.89
2022-10-31T00:42:03.645Z,1015.89
2022-10-31T00:43:04.738Z,1015.88
2022-10-31T00:44:05.559Z,1015.88
2022-10-31T00:45:06.161Z,1015.84
2022-10-31T00:46:06.762Z,1015.90
2022-10-31T00:47:07.355Z,1015.86
2022-10-31T00:48:07.957Z,1015.86
2022-10-31T00:49:08.553Z,1015.87
2022-10-31T00:50:09.151Z,1015.86
2022-10-31T00:51:09.749Z,1015.84
2022-10-31T00:52:10.346Z,1015.86
2022-10-31T00:53:10.949Z,1015.74
2022-10-31T00:54:11.545Z,1015.80
2022-10-31T00:55:12.141Z,1015.72
2022-10-31T00:56:12.745Z,1015.68
2022-10-31T00:57:13.340Z,1015.70
2022-10-31T00:59:15.461Z,1015.67
2022-10-31T01:00:16.066Z,1015.60
2022-10-31T01:01:16.832Z,1015.59
2022-10-31T01:02:17.591Z,1015.62
2022-10-31T01:03:18.233Z,1015.61
2022-10-31T01:04:18.834Z,1015.61
2022-10-31T01:05:19.431Z,1015.61
2022-10-31T01:06:20.101Z,1015.54
2022-10-31T01:07:20.705Z,1015.58
2022-10-31T01:08:21.319Z,1015.61
2022-10-31T01:09:21.907Z,1015.53
2022-10-31T01:10:22.512Z,1015.52
2022-10-31T01:11:23.110Z,1015.49
2022-10-31T01:12:23.777Z,1015.47
2022-10-31T01:13:24.379Z,1015.47
2022-10-31T01:14:24.979Z,1015.52
2022-10-31T01:15:25.580Z,1015.46
2022-10-31T01:16:26.182Z,1015.45
2022-10-31T01:17:26.786Z,1015.45
2022-10-31T01:18:27.383Z,1015.42
2022-10-31T01:19:27.984Z,1015.39
2022-10-31T01:20:28.584Z,1015.45
2022-10-31T01:21:29.184Z,1015.41
2022-10-31T01:22:29.783Z,1015.32
2022-10-31T01:23:30.381Z,1015.32
2022-10-31T01:24:30.983Z,1015.26
2022-10-31T01:25:31.580Z,1015.20
2022-10-31T01:26:32.248Z,1015.20
2022-10-31T01:27:32.907Z,1015.20
2022-10-31T01:28:33.506Z,1015.20
2022-10-31T01:29:34.103Z,1015.11
2022-10-31T01:30:34.697Z,1015.25
2022-10-31T01:31:35.302Z,1015.25
2022-10-31T01:32:35.898Z,1015.27
2022-10-31T01:33:37.349Z,1015.21
2022-10-31T01:34:38.017Z,1015.27
2022-10-31T01:35:38.616Z,1015.31
2022-10-31T01:36:39.366Z,1015.30
2022-10-31T01:37:39.968Z,1015.34
2022-10-31T01:38:40.569Z,1015.35
2022-10-31T01:39:41.166Z,1015.37
2022-10-31T01:40:41.820Z,1015.50
2022-10-31T01:41:42.417Z,1015.34
2022-10-31T01:42:43.018Z,1015.34
2022-10-31T01:43:43.669Z,1015.32
2022-10-31T01:44:45.116Z,1015.21
2022-10-31T01:45:45.720Z,1015.10
2022-10-31T01:46:46.321Z,1015.10
2022-10-31T01:47:46.925Z,1015.00
2022-10-31T01:48:47.576Z,1015.04
2022-10-31T01:49:48.177Z,1015.17
2022-10-31T01:50:48.775Z,1015.18
2022-10-31T01:51:49.373Z,1015.21
2022-10-31T01:52:49.975Z,1015.31
2022-10-31T01:53:50.570Z,1015.35
2022-10-31T01:54:51.168Z,1015.31
2022-10-31T01:55:51.766Z,1015.28
2022-10-31T01:56:52.411Z,1015.21
2022-10-31T01:57:53.007Z,1015.15
2022-10-31T01:58:53.605Z,1015.15
2022-10-31T01:59:54.265Z,1015.08
2022-10-31T02:00:54.935Z,1015.08
2022-10-31T02:01:55.691Z,1015.05
2022-10-31T02:02:56.579Z,1014.95
2022-10-31T02:03:57.290Z,1014.91
2022-10-31T02:04:57.890Z,1014.98
2022-10-31T02:05:58.486Z,1014.97
2022-10-31T02:06:59.087Z,1015.00
2022-10-31T02:07:59.691Z,1015.03
2022-10-31T02:09:00.295Z,1014.99
2022-10-31T02:10:00.895Z,1014.91
2022-10-31T02:11:01.498Z,1014.84
2022-10-31T02:12:02.102Z,1014.83
2022-10-31T02:13:03.104Z,1014.79
2022-10-31T02:14:03.981Z,1014.79
2022-10-31T02:15:04.581Z,1014.75
2022-10-31T02:16:05.181Z,1014.63
2022-10-31T02:17:05.781Z,1014.60
2022-10-31T02:18:06.379Z,1014.53
2022-10-31T02:19:06.981Z,1014.62
2022-10-31T02:20:07.580Z,1014.47
2022-10-31T02:21:08.177Z,1014.46
2022-10-31T02:22:08.778Z,1014.60
2022-10-31T02:23:09.373Z,1014.41
2022-10-31T02:24:09.974Z,1014.59
2022-10-31T02:25:10.564Z,1014.53
2022-10-31T02:26:11.161Z,1014.50
2022-10-31T02:27:11.759Z,1014.57
2022-10-31T02:28:12.404Z,1014.53
2022-10-31T02:29:12.995Z,1014.48
2022-10-31T02:30:13.597Z,1014.41
2022-10-31T02:31:14.188Z,1014.41
2022-10-31T02:32:14.788Z,1014.35
2022-10-31T02:33:15.389Z,1014.30
2022-10-31T02:34:15.984Z,1014.43
2022-10-31T02:35:16.579Z,1014.29
2022-10-31T02:36:17.174Z,1014.28
2022-10-31T02:37:17.774Z,1014.18
2022-10-31T02:38:18.368Z,1014.26
2022-10-31T02:39:18.967Z,1014.31
2022-10-31T02:40:19.570Z,1014.29
2022-10-31T02:41:20.175Z,1014.35
2022-10-31T02:42:20.826Z,1014.29
2022-10-31T02:43:21.578Z,1014.38
2022-10-31T02:44:22.179Z,1014.24
2022-10-31T02:45:22.828Z,1014.24
2022-10-31T02:46:23.475Z,1014.28
2022-10-31T02:47:24.079Z,1014.29
2022-10-31T02:48:24.676Z,1014.21
2022-10-31T02:49:25.329Z,1014.21
2022-10-31T02:50:25.931Z,1014.06
2022-10-31T02:51:26.540Z,1014.12
2022-10-31T02:52:27.141Z,1014.05
2022-10-31T02:53:27.743Z,1014.03
2022-10-31T02:54:28.343Z,1013.97
2022-10-31T02:55:29.045Z,1014.00
2022-10-31T02:56:29.644Z,1014.03
2022-10-31T02:57:30.246Z,1014.03
2022-10-31T02:58:30.845Z,1014.04
2022-10-31T02:59:31.448Z,1014.09
2022-10-31T03:00:32.056Z,1013.95
2022-10-31T03:01:32.716Z,1013.95
2022-10-31T03:02:33.455Z,1013.92
2022-10-31T03:03:34.129Z,1013.95
2022-10-31T03:04:34.720Z,1013.86
2022-10-31T03:05:35.325Z,1013.86
2022-10-31T03:06:35.919Z,1013.90
2022-10-31T03:07:36.524Z,1013.97
2022-10-31T03:08:37.128Z,1013.98
2022-10-31T03:09:37.737Z,1013.97
2022-10-31T03:10:38.330Z,1013.98
2022-10-31T03:11:38.930Z,1014.01
2022-10-31T03:12:42.045Z,1014.00
2022-10-31T03:13:41.126Z,1013.99
2022-10-31T03:14:41.719Z,1014.11
2022-10-31T03:15:42.320Z,1014.14
2022-10-31T03:16:42.920Z,1014.19
2022-10-31T03:17:43.521Z,1014.21
2022-10-31T03:18:44.117Z,1014.20
2022-10-31T03:19:44.722Z,1014.16
2022-10-31T03:20:45.317Z,1014.22
2022-10-31T03:21:45.914Z,1014.22
2022-10-31T03:22:46.511Z,1014.27
2022-10-31T03:23:47.113Z,1014.29
2022-10-31T03:24:47.708Z,1014.33
2022-10-31T03:25:48.304Z,1014.31
2022-10-31T03:26:48.904Z,1014.30
2022-10-31T03:27:49.509Z,1014.40
2022-10-31T03:28:50.911Z,1014.42
2022-10-31T03:29:51.512Z,1014.47
2022-10-31T03:30:52.113Z,1014.40
2022-10-31T03:31:52.716Z,1014.41
2022-10-31T03:32:53.314Z,1014.37
2022-10-31T03:33:53.917Z,1014.30
2022-10-31T03:34:54.518Z,1014.33
2022-10-31T03:35:55.120Z,1014.45
2022-10-31T03:36:55.719Z,1014.36
2022-10-31T03:37:56.326Z,1014.42
2022-10-31T03:38:56.919Z,1014.34
2022-10-31T03:39:57.528Z,1014.30
2022-10-31T03:40:58.116Z,1014.30
2022-10-31T03:41:58.720Z,1014.27
2022-10-31T03:42:59.745Z,1014.23
2022-10-31T03:44:00.534Z,1014.25
2022-10-31T03:45:01.187Z,1014.20
2022-10-31T03:46:01.780Z,1014.12
2022-10-31T03:47:02.376Z,1014.21
2022-10-31T03:48:04.084Z,1014.20
2022-10-31T03:49:04.705Z,1014.18
2022-10-31T03:50:05.350Z,1014.23
2022-10-31T03:51:06.004Z,1014.26
2022-10-31T03:52:06.660Z,1014.25
2022-10-31T03:53:07.260Z,1014.25
2022-10-31T03:54:07.912Z,1014.27
2022-10-31T03:55:08.514Z,1014.30
2022-10-31T03:56:09.617Z,1014.36
2022-10-31T03:57:10.217Z,1014.20
2022-10-31T03:58:10.874Z,1014.23
2022-10-31T03:59:11.531Z,1014.25
2022-10-31T04:00:12.128Z,1014.15
2022-10-31T04:01:12.856Z,1014.22
2022-10-31T04:02:13.588Z,1014.25
2022-10-31T04:03:14.265Z,1014.26
2022-10-31T04:04:14.870Z,1014.29
2022-10-31T04:05:15.472Z,1014.48
2022-10-31T04:06:16.077Z,1014.43
2022-10-31T04:07:16.675Z,1014.46
2022-10-31T04:08:17.276Z,1014.52
2022-10-31T04:09:17.874Z,1014.53
2022-10-31T04:10:18.474Z,1014.60
2022-10-31T04:11:19.073Z,1014.57
2022-10-31T04:12:19.674Z,1014.62
2022-10-31T04:13:20.287Z,1014.60
2022-10-31T04:14:20.882Z,1014.52
2022-10-31T04:15:21.482Z,1014.55
2022-10-31T04:16:22.085Z,1014.58
2022-10-31T04:17:22.678Z,1014.54
2022-10-31T04:18:23.275Z,1014.48
2022-10-31T04:19:23.869Z,1014.46
2022-10-31T04:20:24.470Z,1014.47
2022-10-31T04:21:25.069Z,1014.46
2022-10-31T04:22:25.671Z,1014.44
2022-10-31T04:23:26.268Z,1014.40
2022-10-31T04:24:26.867Z,1014.45
2022-10-31T04:25:28.264Z,1014.32
2022-10-31T04:26:28.866Z,1014.26
2022-10-31T04:27:29.525Z,1014.22
2022-10-31T04:28:30.127Z,1014.06
2022-10-31T04:29:30.787Z,1014.02
2022-10-31T04:30:31.391Z,1013.89
2022-10-31T04:31:32.052Z,1013.79
2022-10-31T04:32:32.656Z,1013.70
2022-10-31T04:33:33.250Z,1013.67
2022-10-31T04:34:33.851Z,1013.53
2022-10-31T04:35:34.453Z,1013.51
2022-10-31T04:36:35.056Z,1013.61
2022-10-31T04:37:35.668Z,1013.53
2022-10-31T04:38:36.256Z,1013.56
2022-10-31T04:39:36.860Z,1013.58
2022-10-31T04:40:37.460Z,1013.51
2022-10-31T04:41:38.065Z,1013.56
2022-10-31T04:42:38.666Z,1013.68
2022-10-31T04:43:39.270Z,1013.70
2022-10-31T04:44:39.871Z,1013.61
2022-10-31T04:45:40.477Z,1013.58
2022-10-31T04:46:41.073Z,1013.53
2022-10-31T04:47:41.676Z,1013.60
2022-10-31T04:48:42.422Z,1013.67
2022-10-31T04:49:43.022Z,1013.61
2022-10-31T04:50:43.627Z,1013.75
2022-10-31T04:51:44.293Z,1013.75
2022-10-31T04:52:44.891Z,1013.69
2022-10-31T04:53:45.539Z,1013.74
2022-10-31T04:54:46.138Z,1013.60
2022-10-31T04:55:46.734Z,1013.49
2022-10-31T04:56:47.330Z,1013.40
2022-10-31T04:57:48.080Z,1013.48
2022-10-31T04:58:48.676Z,1013.54
2022-10-31T04:59:49.324Z,1013.61
2022-10-31T05:00:49.967Z,1013.59
2022-10-31T05:01:50.720Z,1013.71
2022-10-31T05:02:51.404Z,1013.79
2022-10-31T05:03:51.995Z,1013.75
2022-10-31T05:04:52.597Z,1013.70
2022-10-31T05:05:54.048Z,1013.73
2022-10-31T05:06:54.648Z,1013.84
2022-10-31T05:07:55.249Z,1013.81
2022-10-31T05:08:55.848Z,1013.86
2022-10-31T05:09:56.447Z,1013.84
2022-10-31T05:11:01.624Z,1013.77
2022-10-31T05:11:58.641Z,1013.74
2022-10-31T05:12:59.849Z,1013.75
2022-10-31T05:14:00.780Z,1013.78
2022-10-31T05:15:01.377Z,1013.72
2022-10-31T05:16:01.980Z,1013.71
2022-10-31T05:17:02.578Z,1013.77
2022-10-31T05:18:03.709Z,1013.77
2022-10-31T05:19:03.896Z,1013.80
2022-10-31T05:20:04.496Z,1013.83
2022-10-31T05:21:05.095Z,1013.84
2022-10-31T05:22:05.692Z,1013.79
2022-10-31T05:23:06.290Z,1013.72
2022-10-31T05:24:06.885Z,1013.67
2022-10-31T05:25:07.485Z,1013.76
2022-10-31T05:26:08.085Z,1013.60
2022-10-31T05:27:08.679Z,1013.71
2022-10-31T05:28:09.292Z,1013.71
2022-10-31T05:29:09.878Z,1013.76
2022-10-31T05:30:10.477Z,1013.69
2022-10-31T05:31:11.098Z,1013.72
2022-10-31T05:32:11.688Z,1013.64
2022-10-31T05:33:12.291Z,1013.83
2022-10-31T05:34:12.892Z,1013.88
2022-10-31T05:35:13.558Z,1013.93
2022-10-31T05:36:14.155Z,1013.87
2022-10-31T05:37:14.758Z,1013.92
2022-10-31T05:38:15.360Z,1013.82
2022-10-31T05:39:15.960Z,1013.88
2022-10-31T05:40:16.562Z,1013.97
2022-10-31T05:41:17.161Z,1013.85
2022-10-31T05:42:17.760Z,1013.83
2022-10-31T05:43:18.362Z,1013.86
2022-10-31T05:44:18.962Z,1013.83
2022-10-31T05:45:19.564Z,1013.80
2022-10-31T05:46:20.197Z,1013.81
2022-10-31T05:47:20.818Z,1013.80
2022-10-31T05:48:21.418Z,1013.85
2022-10-31T05:49:22.016Z,1013.69
2022-10-31T05:50:22.616Z,1013.62
2022-10-31T05:51:23.267Z,1013.64
2022-10-31T05:52:23.867Z,1013.66
2022-10-31T05:53:24.464Z,1013.59
2022-10-31T05:54:25.112Z,1013.47
2022-10-31T05:55:25.709Z,1013.41
2022-10-31T05:56:26.307Z,1013.47
2022-10-31T05:57:26.900Z,1013.54
2022-10-31T05:58:27.594Z,1013.64
2022-10-31T05:59:28.193Z,1013.71
2022-10-31T06:00:28.794Z,1013.74
2022-10-31T06:01:29.479Z,1013.71
2022-10-31T06:02:30.127Z,1013.69
2022-10-31T06:03:30.780Z,1013.72
2022-10-31T06:04:31.417Z,1013.61
2022-10-31T06:05:32.020Z,1013.64
2022-10-31T06:06:32.619Z,1013.62
2022-10-31T06:07:33.239Z,1013.66
2022-10-31T06:08:33.842Z,1013.59
2022-10-31T06:09:35.291Z,1013.65
2022-10-31T06:10:35.899Z,1013.66
2022-10-31T06:11:36.485Z,1013.72
2022-10-31T06:12:37.081Z,1013.64
2022-10-31T06:13:37.683Z,1013.66
2022-10-31T06:14:38.285Z,1013.61
2022-10-31T06:15:38.882Z,1013.47
2022-10-31T06:16:39.482Z,1013.46
2022-10-31T06:17:40.085Z,1013.38
2022-10-31T06:18:40.683Z,1013.49
2022-10-31T06:19:41.334Z,1013.44
2022-10-31T06:20:41.945Z,1013.40
2022-10-31T06:21:42.539Z,1013.45
2022-10-31T06:22:43.191Z,1013.50
2022-10-31T06:23:43.791Z,1013.49
2022-10-31T06:24:44.391Z,1013.51
2022-10-31T06:25:44.992Z,1013.48
2022-10-31T06:26:45.589Z,1013.42
2022-10-31T06:27:46.187Z,1013.46
2022-10-31T06:28:46.787Z,1013.47
2022-10-31T06:29:47.383Z,1013.50
2022-10-31T06:30:48.031Z,1013.62
2022-10-31T06:31:48.678Z,1013.49
2022-10-31T06:32:49.280Z,1013.54
2022-10-31T06:33:50.326Z,1013.47
2022-10-31T06:34:50.907Z,1013.50
2022-10-31T06:35:51.551Z,1013.54
2022-10-31T06:36:52.297Z,1013.45
2022-10-31T06:37:52.950Z,1013.49
2022-10-31T06:38:53.545Z,1013.56
2022-10-31T06:39:54.146Z,1013.58
2022-10-31T06:40:54.746Z,1013.45
2022-10-31T06:41:55.347Z,1013.40
2022-10-31T06:42:55.950Z,1013.25
2022-10-31T06:43:56.552Z,1013.21
2022-10-31T06:44:57.150Z,1013.24
2022-10-31T06:45:57.747Z,1013.30
2022-10-31T06:46:58.354Z,1013.34
2022-10-31T06:48:22.574Z,1013.26
2022-10-31T06:49:00.539Z,1013.37
2022-10-31T06:50:01.132Z,1013.24
2022-10-31T06:51:01.732Z,1013.30
2022-10-31T06:52:02.332Z,1013.30
2022-10-31T06:53:03.768Z,1013.35
2022-10-31T06:54:04.363Z,1013.23
2022-10-31T06:55:04.970Z,1013.22
2022-10-31T06:56:05.564Z,1013.37
2022-10-31T06:57:06.157Z,1013.42
2022-10-31T06:58:07.054Z,1013.42
2022-10-31T06:59:07.778Z,1013.50
2022-10-31T07:00:08.373Z,1013.48
2022-10-31T07:01:09.081Z,1013.54
2022-10-31T07:02:09.807Z,1013.66
2022-10-31T07:03:10.522Z,1013.63
2022-10-31T07:04:11.135Z,1013.61
2022-10-31T07:05:11.770Z,1013.66
2022-10-31T07:06:12.366Z,1013.59
2022-10-31T07:07:12.969Z,1013.44
2022-10-31T07:08:13.563Z,1013.63
2022-10-31T07:09:14.182Z,1013.65
2022-10-31T07:10:14.825Z,1013.60
2022-10-31T07:11:15.421Z,1013.57
2022-10-31T07:12:16.072Z,1013.60
2022-10-31T07:13:16.680Z,1013.56
2022-10-31T07:14:17.273Z,1013.53
2022-10-31T07:15:17.871Z,1013.60
2022-10-31T07:16:18.472Z,1013.53
2022-10-31T07:17:19.067Z,1013.56
2022-10-31T07:18:19.670Z,1013.53
2022-10-31T07:19:20.264Z,1013.59
2022-10-31T07:20:20.863Z,1013.60
2022-10-31T07:21:21.464Z,1013.70
2022-10-31T07:22:22.062Z,1013.76
2022-10-31T07:23:22.657Z,1013.69
2022-10-31T07:24:23.254Z,1013.82
2022-10-31T07:25:23.855Z,1013.86
2022-10-31T07:26:24.456Z,1013.87
2022-10-31T07:27:25.058Z,1013.83
2022-10-31T07:28:25.657Z,1013.83
2022-10-31T07:29:26.318Z,1013.92
2022-10-31T07:30:26.981Z,1014.03
2022-10-31T07:31:27.682Z,1013.97
2022-10-31T07:32:28.282Z,1014.05
2022-10-31T07:33:28.882Z,1014.03
2022-10-31T07:34:29.479Z,1014.04
2022-10-31T07:35:30.091Z,1014.05
2022-10-31T07:36:30.677Z,1013.98
2022-10-31T07:37:31.271Z,1013.98
2022-10-31T07:38:31.989Z,1013.98
2022-10-31T07:39:33.439Z,1013.97
2022-10-31T07:40:34.038Z,1014.00
2022-10-31T07:41:35.509Z,1014.08
2022-10-31T07:42:36.131Z,1014.01
2022-10-31T07:43:36.729Z,1014.02
2022-10-31T07:44:37.398Z,1014.20
2022-10-31T07:45:38.000Z,1014.14
2022-10-31T07:46:38.602Z,1014.14
2022-10-31T07:47:39.349Z,1014.28
2022-10-31T07:48:39.949Z,1014.24
2022-10-31T07:49:40.543Z,1014.38
2022-10-31T07:50:41.147Z,1014.45
2022-10-31T07:51:46.344Z,1014.47
2022-10-31T07:52:43.336Z,1014.43
2022-10-31T07:53:43.933Z,1014.46
2022-10-31T07:54:44.531Z,1014.44
2022-10-31T07:55:45.126Z,1014.35
2022-10-31T07:56:45.724Z,1014.40
2022-10-31T07:57:46.323Z,1014.47
2022-10-31T07:58:46.917Z,1014.46
2022-10-31T07:59:47.512Z,1014.43
2022-10-31T08:00:48.187Z,1014.40
2022-10-31T08:01:48.762Z,1014.48
2022-10-31T08:02:49.365Z,1014.52
2022-10-31T08:03:49.961Z,1014.57
2022-10-31T08:04:50.564Z,1014.52
2022-10-31T08:05:51.163Z,1014.52
2022-10-31T08:06:51.762Z,1014.51
2022-10-31T08:07:52.365Z,1014.58
2022-10-31T08:08:52.965Z,1014.61
2022-10-31T08:09:53.562Z,1014.62
2022-10-31T08:10:54.159Z,1014.60
2022-10-31T08:11:54.757Z,1014.56
2022-10-31T08:12:55.356Z,1014.63
2022-10-31T08:13:55.955Z,1014.67
2022-10-31T08:14:56.557Z,1014.62
2022-10-31T08:15:57.158Z,1014.68
2022-10-31T08:16:57.756Z,1014.61
2022-10-31T08:17:58.770Z,1014.66
2022-10-31T08:18:59.520Z,1014.66
2022-10-31T08:20:00.128Z,1014.70
2022-10-31T08:21:00.717Z,1014.71
2022-10-31T08:22:01.311Z,1014.84
2022-10-31T08:23:01.913Z,1014.89
2022-10-31T08:24:02.574Z,1014.89
2022-10-31T08:25:03.175Z,1014.89
2022-10-31T08:26:03.770Z,1014.95
2022-10-31T08:27:04.371Z,1014.95
2022-10-31T08:28:05.034Z,1014.97
2022-10-31T08:29:05.628Z,1014.99
2022-10-31T08:30:06.227Z,1015.05
2022-10-31T08:31:06.821Z,1015.04
2022-10-31T08:32:07.419Z,1014.99
2022-10-31T08:33:08.021Z,1014.98
2022-10-31T08:34:08.619Z,1015.04
2022-10-31T08:35:09.222Z,1015.09
2022-10-31T08:36:09.825Z,1015.05
2022-10-31T08:37:10.487Z,1015.08
2022-10-31T08:38:11.085Z,1015.07
2022-10-31T08:39:11.685Z,1015.08
2022-10-31T08:40:12.286Z,1015.13
2022-10-31T08:41:12.886Z,1015.15
2022-10-31T08:42:13.486Z,1015.18
2022-10-31T08:43:14.138Z,1015.19
2022-10-31T08:44:14.799Z,1015.20
2022-10-31T08:45:15.410Z,1015.16
2022-10-31T08:46:16.145Z,1015.29
2022-10-31T08:47:16.754Z,1015.36
2022-10-31T08:48:17.407Z,1015.33
2022-10-31T08:49:18.002Z,1015.35
2022-10-31T08:50:18.608Z,1015.37
2022-10-31T08:51:19.249Z,1015.34
2022-10-31T08:52:21.534Z,1015.30
2022-10-31T08:53:21.435Z,1015.33
2022-10-31T08:54:22.033Z,1015.33
2022-10-31T08:55:22.634Z,1015.35
2022-10-31T08:56:23.236Z,1015.37
2022-10-31T08:57:23.902Z,1015.35
2022-10-31T08:58:24.496Z,1015.42
2022-10-31T08:59:25.096Z,1015.46
2022-10-31T09:00:25.845Z,1015.44
2022-10-31T09:01:26.552Z,1015.41
2022-10-31T09:02:27.297Z,1015.49
2022-10-31T09:03:27.951Z,1015.46
2022-10-31T09:04:28.549Z,1015.41
2022-10-31T09:05:29.149Z,1015.41
2022-10-31T09:06:29.766Z,1015.47
2022-10-31T09:07:30.347Z,1015.46
2022-10-31T09:08:31.015Z,1015.49
2022-10-31T09:09:31.612Z,1015.49
2022-10-31T09:10:32.221Z,1015.49
2022-10-31T09:11:32.877Z,1015.46
2022-10-31T09:12:33.477Z,1015.54
2022-10-31T09:13:38.727Z,1015.48
2022-10-31T09:14:35.675Z,1015.52
2022-10-31T09:15:36.273Z,1015.59
2022-10-31T09:16:36.876Z,1015.62
2022-10-31T09:17:37.478Z,1015.65
2022-10-31T09:18:38.081Z,1015.67
2022-10-31T09:19:38.684Z,1015.71
2022-10-31T09:20:39.278Z,1015.70
2022-10-31T09:21:39.881Z,1015.74
2022-10-31T09:22:40.483Z,1015.68
2022-10-31T09:23:41.083Z,1015.68
2022-10-31T09:24:41.687Z,1015.72
2022-10-31T09:25:46.141Z,1015.68
2022-10-31T09:26:43.945Z,1015.73
2022-10-31T09:27:44.543Z,1015.73
2022-10-31T09:28:45.140Z,1015.66
2022-10-31T09:29:45.741Z,1015.69
2022-10-31T09:30:46.343Z,1015.72
2022-10-31T09:31:46.943Z,1015.71
2022-10-31T09:32:47.543Z,1015.72
2022-10-31T09:33:48.145Z,1015.83
2022-10-31T09:34:48.745Z,1015.83
2022-10-31T09:35:49.345Z,1015.80
2022-10-31T09:36:49.949Z,1015.79
2022-10-31T09:37:50.547Z,1015.83
2022-10-31T09:38:51.148Z,1015.89
2022-10-31T09:39:51.745Z,1015.87
2022-10-31T09:40:52.344Z,1015.87
2022-10-31T09:41:56.272Z,1015.90
2022-10-31T09:42:54.532Z,1015.89
2022-10-31T09:43:55.133Z,1015.91
2022-10-31T09:44:55.780Z,1015.95
2022-10-31T09:45:57.241Z,1015.95
2022-10-31T09:46:57.829Z,1015.86
2022-10-31T09:47:58.658Z,1016.01
2022-10-31T09:48:59.494Z,1015.95
2022-10-31T09:50:00.965Z,1016.01
2022-10-31T09:51:01.579Z,1015.97
2022-10-31T09:52:02.213Z,1015.98
2022-10-31T09:53:03.257Z,1016.00
2022-10-31T09:54:04.302Z,1016.02
2022-10-31T09:55:04.966Z,1016.02
2022-10-31T09:56:05.553Z,1016.09
2022-10-31T09:57:06.148Z,1016.12
2022-10-31T09:58:06.748Z,1016.08
2022-10-31T09:59:07.344Z,1016.08
2022-10-31T10:00:07.944Z,1016.16
2022-10-31T10:01:08.635Z,1016.19
2022-10-31T10:02:09.294Z,1016.22
2022-10-31T10:03:09.939Z,1016.14
2022-10-31T10:04:10.535Z,1016.12
2022-10-31T10:05:11.136Z,1016.07
2022-10-31T10:06:11.737Z,1016.19
2022-10-31T10:07:12.336Z,1016.19
2022-10-31T10:08:12.940Z,1016.30
2022-10-31T10:09:13.644Z,1016.25
2022-10-31T10:10:14.244Z,1016.23
2022-10-31T10:11:14.841Z,1016.23
2022-10-31T10:12:15.476Z,1016.19
2022-10-31T10:13:16.045Z,1016.21
2022-10-31T10:14:16.643Z,1016.38
2022-10-31T10:15:17.241Z,1016.29
2022-10-31T10:16:17.838Z,1016.38
2022-10-31T10:17:18.485Z,1016.40
2022-10-31T10:18:19.083Z,1016.52
2022-10-31T10:19:19.683Z,1016.40
2022-10-31T10:20:20.785Z,1016.45
2022-10-31T10:21:22.400Z,1016.42
2022-10-31T10:22:23.000Z,1016.49
2022-10-31T10:23:23.597Z,1016.48
2022-10-31T10:24:24.201Z,1016.47
2022-10-31T10:25:24.795Z,1016.40
2022-10-31T10:26:25.424Z,1016.45
2022-10-31T10:27:26.035Z,1016.38
2022-10-31T10:28:26.639Z,1016.50
2022-10-31T10:29:27.241Z,1016.47
2022-10-31T10:30:27.842Z,1016.49
2022-10-31T10:31:28.508Z,1016.51
2022-10-31T10:32:29.179Z,1016.47
2022-10-31T10:33:29.779Z,1016.52
2022-10-31T10:34:30.382Z,1016.49
2022-10-31T10:35:30.987Z,1016.55
2022-10-31T10:36:31.585Z,1016.41
2022-10-31T10:37:32.251Z,1016.46
2022-10-31T10:38:32.856Z,1016.43
2022-10-31T10:39:33.456Z,1016.43
2022-10-31T10:40:34.059Z,1016.51
2022-10-31T10:41:34.981Z,1016.45
2022-10-31T10:42:35.636Z,1016.46
2022-10-31T10:43:36.299Z,1016.44
2022-10-31T10:44:36.899Z,1016.42
2022-10-31T10:45:37.497Z,1016.49
2022-10-31T10:46:38.123Z,1016.42
2022-10-31T10:47:38.695Z,1016.50
2022-10-31T10:48:39.292Z,1016.54
2022-10-31T10:49:39.891Z,1016.56
2022-10-31T10:50:40.489Z,1016.57
2022-10-31T10:52:46.188Z,1016.56
2022-10-31T10:53:44.520Z,1016.51
2022-10-31T10:54:45.126Z,1016.62
2022-10-31T10:55:46.569Z,1016.61
2022-10-31T10:56:47.168Z,1016.79
2022-10-31T10:57:47.886Z,1016.68
2022-10-31T10:58:48.503Z,1016.77
2022-10-31T10:59:49.100Z,1016.66
2022-10-31T11:00:49.812Z,1016.72
2022-10-31T11:01:50.588Z,1016.73
2022-10-31T11:02:51.188Z,1016.69
2022-10-31T11:03:51.785Z,1016.75
2022-10-31T11:04:52.398Z,1016.72
2022-10-31T11:05:52.985Z,1016.83
2022-10-31T11:06:53.589Z,1016.67
2022-10-31T11:07:54.990Z,1016.63
2022-10-31T11:08:55.593Z,1016.75
2022-10-31T11:09:56.193Z,1016.65
2022-10-31T11:10:56.794Z,1016.72
2022-10-31T11:11:57.391Z,1016.74
2022-10-31T11:12:58.313Z,1016.72
2022-10-31T11:13:59.099Z,1016.77
2022-10-31T11:14:59.701Z,1016.77
2022-10-31T11:16:00.315Z,1016.91
2022-10-31T11:17:00.899Z,1016.83
2022-10-31T11:18:01.493Z,1016.78
2022-10-31T11:19:02.143Z,1016.87
2022-10-31T11:20:02.743Z,1016.80
2022-10-31T11:21:03.340Z,1016.89
2022-10-31T11:22:03.948Z,1016.87
2022-10-31T11:23:04.549Z,1016.72
2022-10-31T11:24:05.136Z,1016.81
2022-10-31T11:25:05.795Z,1016.84
2022-10-31T11:26:06.394Z,1016.82
2022-10-31T11:27:06.990Z,1016.96
2022-10-31T11:28:07.589Z,1016.82
2022-10-31T11:29:08.193Z,1016.91
2022-10-31T11:30:08.786Z,1016.88
2022-10-31T11:31:09.386Z,1016.95
2022-10-31T11:32:09.982Z,1016.94
2022-10-31T11:33:10.581Z,1016.92
2022-10-31T11:34:11.177Z,1016.92
2022-10-31T11:35:11.777Z,1016.98
2022-10-31T11:36:12.377Z,1016.87
2022-10-31T11:37:12.979Z,1016.92
2022-10-31T11:38:14.374Z,1017.01
2022-10-31T11:39:14.972Z,1016.97
2022-10-31T11:40:15.582Z,1017.15
2022-10-31T11:41:16.170Z,1017.08
2022-10-31T11:42:16.769Z,1017.05
2022-10-31T11:43:17.366Z,1017.09
2022-10-31T11:44:17.963Z,1017.15
2022-10-31T11:45:18.564Z,1017.16
2022-10-31T11:46:19.230Z,1017.18
2022-10-31T11:47:19.836Z,1017.21
2022-10-31T11:48:20.429Z,1017.33
2022-10-31T11:49:21.032Z,1017.35
2022-10-31T11:50:21.631Z,1017.47
2022-10-31T11:51:22.232Z,1017.65
2022-10-31T11:52:22.831Z,1017.63
2022-10-31T11:53:23.437Z,1017.63
2022-10-31T11:54:24.082Z,1017.49
2022-10-31T11:55:25.483Z,1017.52
2022-10-31T11:56:26.948Z,1017.44
2022-10-31T11:57:27.572Z,1017.57
2022-10-31T11:58:28.170Z,1017.40
2022-10-31T11:59:28.785Z,1017.38
2022-10-31T12:00:29.433Z,1017.45
2022-10-31T12:01:30.199Z,1017.38
2022-10-31T12:02:30.824Z,1017.44
2022-10-31T12:03:31.430Z,1017.37
2022-10-31T12:04:32.045Z,1017.48
2022-10-31T12:05:32.657Z,1017.39
2022-10-31T12:06:33.294Z,1017.36
2022-10-31T12:07:33.937Z,1017.40
2022-10-31T12:08:34.596Z,1017.60
2022-10-31T12:09:35.201Z,1017.41
2022-10-31T12:10:35.799Z,1017.44
2022-10-31T12:11:36.467Z,1017.40
2022-10-31T12:12:37.080Z,1017.46
2022-10-31T12:13:37.703Z,1017.54
2022-10-31T12:14:38.314Z,1017.48
2022-10-31T12:15:38.927Z,1017.54